Time;durP1;ratioP1;P1;durP2;ratioP2;P2;SDS_P1;SDS_P2;PMS_P1;PMS_P2;Temp;Humidity;BMP_temperature;BMP_pressure;BME280_temperature;BME280_humidity;BME280_pressure;Samples;Min_cycle;Max_cycle;Signal;HPM_P1;HPM_P2
2021/05/12 00:00:35;;;;;;;1.63;1.52;;;11.30;99.90;;;;;;5070385;28;20243;-70
2021/05/12 00:03:01;;;;;;;2.20;2.00;;;11.30;99.90;;;;;;5070340;28;20215;-70
2021/05/12 00:05:27;;;;;;;2.15;1.98;;;11.20;99.90;;;;;;5070345;28;20366;-70
2021/05/12 00:07:53;;;;;;;1.80;1.70;;;11.20;99.90;;;;;;5073263;28;20224;-70
2021/05/12 00:10:21;;;;;;;1.98;1.73;;;11.20;99.90;;;;;;5074129;28;20204;-70
2021/05/12 00:12:47;;;;;;;1.83;1.65;;;11.20;99.90;;;;;;5074435;28;20208;-70
2021/05/12 00:15:16;;;;;;;2.65;1.80;;;11.20;99.90;;;;;;5074147;28;20200;-70
2021/05/12 00:17:46;;;;;;;1.98;1.77;;;11.20;99.90;;;;;;5074020;28;20222;-70
2021/05/12 00:20:18;;;;;;;2.10;1.83;;;11.20;99.90;;;;;;5074139;28;20208;-70
2021/05/12 00:22:49;;;;;;;2.05;1.88;;;11.20;99.90;;;;;;5074236;28;20223;-69
2021/05/12 00:25:16;;;;;;;2.20;2.00;;;11.20;99.90;;;;;;5073960;28;20215;-70
2021/05/12 00:27:42;;;;;;;2.10;1.90;;;11.20;99.90;;;;;;5073801;28;20200;-69
2021/05/12 00:30:11;;;;;;;2.50;2.30;;;11.20;99.90;;;;;;5073799;28;20208;-69
2021/05/12 00:32:38;;;;;;;2.88;2.38;;;11.10;99.90;;;;;;5073890;28;20680;-70
2021/05/12 00:35:06;;;;;;;2.38;2.17;;;11.20;99.90;;;;;;5073841;28;20200;-70
2021/05/12 00:37:32;;;;;;;2.72;2.20;;;11.20;99.90;;;;;;5073591;28;20275;-70
2021/05/12 00:39:58;;;;;;;2.15;1.95;;;11.20;99.90;;;;;;5073534;28;20258;-69
2021/05/12 00:42:28;;;;;;;2.33;1.90;;;11.20;99.90;;;;;;5073735;28;20204;-70
2021/05/12 00:44:54;;;;;;;2.20;2.00;;;11.20;99.90;;;;;;5073718;28;20206;-69
2021/05/12 00:47:25;;;;;;;1.92;1.70;;;11.20;99.90;;;;;;5073642;28;20204;-69
2021/05/12 00:49:51;;;;;;;1.88;1.77;;;11.20;99.90;;;;;;5073490;28;20200;-70
2021/05/12 00:52:18;;;;;;;2.20;1.80;;;11.20;99.90;;;;;;5073559;28;20672;-69
2021/05/12 00:54:44;;;;;;;2.03;1.83;;;11.20;99.90;;;;;;5073902;28;20205;-70
2021/05/12 00:57:10;;;;;;;1.95;1.75;;;11.20;99.90;;;;;;5074432;28;20231;-70
2021/05/12 00:59:37;;;;;;;1.55;1.30;;;11.20;99.90;;;;;;5074556;28;20228;-69
2021/05/12 01:02:05;;;;;;;1.20;1.10;;;11.00;99.90;;;;;;5073311;28;20204;-70
2021/05/12 01:04:32;;;;;;;3.17;1.77;;;11.00;99.90;;;;;;5073267;28;20205;-69
2021/05/12 01:06:58;;;;;;;3.35;1.50;;;11.00;99.90;;;;;;5073388;28;20207;-69
2021/05/12 01:09:25;;;;;;;2.45;1.65;;;11.00;99.90;;;;;;5072709;28;20224;-69
2021/05/12 01:11:51;;;;;;;2.40;1.73;;;11.00;99.90;;;;;;5073427;28;20204;-69
2021/05/12 01:14:19;;;;;;;1.45;1.15;;;10.90;99.90;;;;;;5072992;28;20207;-69
2021/05/12 01:16:47;;;;;;;2.13;1.83;;;10.80;99.90;;;;;;5072901;28;20224;-69
2021/05/12 01:19:14;;;;;;;1.40;1.10;;;10.80;99.90;;;;;;5071724;28;20220;-69
2021/05/12 01:21:41;;;;;;;2.90;1.50;;;10.80;99.90;;;;;;5073120;28;20200;-69
2021/05/12 01:24:08;;;;;;;2.15;1.40;;;10.80;99.90;;;;;;5072848;28;20698;-69
2021/05/12 01:26:35;;;;;;;1.27;1.17;;;10.80;99.90;;;;;;5072952;28;20192;-69
2021/05/12 01:29:02;;;;;;;1.90;1.40;;;10.70;99.90;;;;;;5072608;28;20224;-68
2021/05/12 01:31:32;;;;;;;2.15;1.60;;;10.70;99.90;;;;;;5072895;28;20196;-69
2021/05/12 01:33:59;;;;;;;1.55;1.45;;;10.70;99.90;;;;;;5072828;28;20208;-70
2021/05/12 01:36:27;;;;;;;2.85;1.58;;;10.70;99.90;;;;;;5072608;28;20200;-70
2021/05/12 01:38:54;;;;;;;1.33;1.20;;;10.70;99.90;;;;;;5072318;28;20224;-69
2021/05/12 01:41:23;;;;;;;1.65;1.52;;;10.70;99.90;;;;;;5072280;28;20219;-69
2021/05/12 01:43:50;;;;;;;2.28;1.50;;;10.70;99.90;;;;;;5072533;28;20207;-69
2021/05/12 01:46:16;;;;;;;1.42;1.10;;;10.70;99.90;;;;;;5072601;28;20197;-69
2021/05/12 01:48:43;;;;;;;3.85;1.50;;;10.70;99.90;;;;;;5072039;28;20220;-69
2021/05/12 01:51:11;;;;;;;3.15;1.40;;;10.70;99.90;;;;;;5072389;28;20207;-69
2021/05/12 01:53:38;;;;;;;2.40;1.58;;;10.70;99.90;;;;;;5072391;28;20208;-69
2021/05/12 01:56:06;;;;;;;1.60;1.50;;;10.70;99.90;;;;;;5072309;28;20219;-70
2021/05/12 01:58:32;;;;;;;4.70;2.25;;;10.70;99.90;;;;;;5071804;28;20251;-70
2021/05/12 02:00:58;;;;;;;2.50;1.42;;;10.70;99.90;;;;;;5072247;28;20200;-69
2021/05/12 02:03:25;;;;;;;3.20;1.73;;;10.60;99.90;;;;;;5072149;28;20208;-70
2021/05/12 02:05:53;;;;;;;2.47;1.75;;;10.70;99.90;;;;;;5072244;28;20207;-69
2021/05/12 02:08:21;;;;;;;2.30;2.10;;;10.60;99.90;;;;;;5071549;28;20212;-69
2021/05/12 02:10:49;;;;;;;1.63;1.52;;;10.60;99.90;;;;;;5072154;28;20204;-69
2021/05/12 02:13:17;;;;;;;4.43;1.88;;;10.60;99.90;;;;;;5071819;28;20197;-70
2021/05/12 02:15:44;;;;;;;3.17;2.00;;;10.60;99.90;;;;;;5072026;28;20200;-69
2021/05/12 02:18:11;;;;;;;2.00;1.77;;;10.50;99.90;;;;;;5071412;28;20224;-69
2021/05/12 02:20:38;;;;;;;2.38;1.58;;;10.50;99.90;;;;;;5072050;28;20291;-69
2021/05/12 02:23:06;;;;;;;2.40;2.17;;;10.60;99.90;;;;;;5071932;28;20699;-69
2021/05/12 02:25:33;;;;;;;1.73;1.50;;;10.60;99.90;;;;;;5071680;28;20200;-69
2021/05/12 02:27:59;;;;;;;1.83;1.50;;;10.50;99.90;;;;;;5071490;28;20228;-69
2021/05/12 02:30:27;;;;;;;2.30;1.67;;;10.50;99.90;;;;;;5071574;28;20686;-70
2021/05/12 02:32:55;;;;;;;1.85;1.45;;;10.50;99.90;;;;;;5071782;28;20208;-70
2021/05/12 02:35:22;;;;;;;4.55;2.10;;;10.50;99.90;;;;;;5071411;28;20196;-69
2021/05/12 02:37:48;;;;;;;2.40;1.95;;;10.50;99.90;;;;;;5071092;28;20233;-69
2021/05/12 02:40:16;;;;;;;4.53;1.85;;;10.50;99.90;;;;;;5071486;28;20235;-70
2021/05/12 02:42:43;;;;;;;2.00;1.80;;;10.50;99.90;;;;;;5071572;28;20211;-70
2021/05/12 02:45:11;;;;;;;2.95;1.90;;;10.50;99.90;;;;;;5071435;28;20207;-69
2021/05/12 02:47:39;;;;;;;2.60;2.00;;;10.50;99.90;;;;;;5071238;28;20200;-69
2021/05/12 02:50:07;;;;;;;3.03;2.28;;;10.40;99.90;;;;;;5071170;28;20200;-70
2021/05/12 02:52:33;;;;;;;2.15;2.00;;;10.40;99.90;;;;;;5071306;28;20227;-69
2021/05/12 02:54:59;;;;;;;2.88;2.03;;;10.40;99.90;;;;;;5071273;28;20204;-69
2021/05/12 02:57:26;;;;;;;2.60;2.28;;;10.50;99.90;;;;;;5070981;28;20220;-68
2021/05/12 02:59:52;;;;;;;2.85;2.08;;;10.40;99.90;;;;;;5070932;28;20212;-69
2021/05/12 03:02:19;;;;;;;3.08;2.60;;;10.40;99.90;;;;;;5071128;28;20208;-69
2021/05/12 03:04:46;;;;;;;3.20;2.08;;;10.40;99.90;;;;;;5071095;28;20197;-69
2021/05/12 03:07:12;;;;;;;4.40;2.33;;;10.40;99.90;;;;;;5070977;28;20565;-69
2021/05/12 03:09:39;;;;;;;4.88;2.63;;;10.40;99.90;;;;;;5070708;28;20227;-70
2021/05/12 03:12:06;;;;;;;4.18;2.65;;;10.40;99.90;;;;;;5070727;28;20254;-69
2021/05/12 03:14:32;;;;;;;2.92;2.63;;;10.40;99.90;;;;;;5071050;28;20207;-69
2021/05/12 03:16:58;;;;;;;4.43;2.90;;;10.40;99.90;;;;;;5070793;28;20587;-69
2021/05/12 03:19:26;;;;;;;2.92;2.65;;;10.40;99.90;;;;;;5070561;28;20220;-69
2021/05/12 03:21:54;;;;;;;3.70;2.65;;;10.40;99.90;;;;;;5070725;28;20200;-69
2021/05/12 03:24:20;;;;;;;3.08;2.88;;;10.50;99.90;;;;;;5070715;28;20215;-69
2021/05/12 03:26:47;;;;;;;4.20;3.15;;;10.40;99.90;;;;;;5070874;28;20621;-69
2021/05/12 03:29:13;;;;;;;4.75;3.10;;;10.40;99.90;;;;;;5070300;28;20220;-70
2021/05/12 03:31:39;;;;;;;4.78;3.63;;;10.40;99.90;;;;;;5070350;28;20200;-70
2021/05/12 03:34:07;;;;;;;4.72;3.30;;;10.40;99.90;;;;;;5070552;28;20204;-71
2021/05/12 03:36:33;;;;;;;4.75;3.47;;;10.40;99.90;;;;;;5070293;28;20614;-70
2021/05/12 03:39:01;;;;;;;4.57;3.25;;;10.40;99.90;;;;;;5070322;28;20763;-70
2021/05/12 03:41:27;;;;;;;4.25;3.45;;;10.40;99.90;;;;;;5070323;28;20257;-70
2021/05/12 03:43:53;;;;;;;6.07;3.40;;;10.30;99.90;;;;;;5070614;28;20205;-70
2021/05/12 03:46:20;;;;;;;5.18;3.85;;;10.40;99.90;;;;;;5070428;28;20204;-71
2021/05/12 03:48:46;;;;;;;6.65;4.25;;;10.40;99.90;;;;;;5070711;28;20223;-70
2021/05/12 03:51:13;;;;;;;5.30;3.70;;;10.40;99.90;;;;;;5070620;28;20204;-70
2021/05/12 03:53:39;;;;;;;4.22;3.80;;;10.30;99.90;;;;;;5070685;28;20208;-69
2021/05/12 03:56:06;;;;;;;6.13;4.68;;;10.30;99.90;;;;;;5070703;28;20211;-70
2021/05/12 03:58:33;;;;;;;6.63;3.97;;;10.30;99.90;;;;;;5070048;28;20228;-69
2021/05/12 04:01:00;;;;;;;4.80;4.00;;;10.30;99.90;;;;;;5070554;28;20200;-69
2021/05/12 04:03:28;;;;;;;4.40;4.00;;;10.30;99.90;;;;;;5070113;28;20205;-68
2021/05/12 04:05:55;;;;;;;8.05;5.25;;;10.30;99.90;;;;;;5069155;28;20810;-67
2021/05/12 04:08:23;;;;;;;4.82;4.32;;;10.30;99.90;;;;;;5070019;28;20224;-66
2021/05/12 04:10:50;;;;;;;5.93;4.35;;;10.30;99.90;;;;;;5070403;28;20208;-69
2021/05/12 04:13:17;;;;;;;8.75;5.03;;;10.30;99.90;;;;;;5070210;28;20211;-69
2021/05/12 04:15:43;;;;;;;5.97;4.35;;;10.30;99.90;;;;;;5070348;28;20207;-68
2021/05/12 04:18:10;;;;;;;9.43;4.68;;;10.30;99.90;;;;;;5069704;28;20232;-68
2021/05/12 04:20:36;;;;;;;5.20;4.30;;;10.40;99.90;;;;;;5069919;28;20583;-68
2021/05/12 04:23:02;;;;;;;5.25;4.43;;;10.40;99.90;;;;;;5069828;28;20621;-68
2021/05/12 04:25:28;;;;;;;5.20;4.70;;;10.40;99.90;;;;;;5070202;28;20200;-68
2021/05/12 04:27:55;;;;;;;5.97;4.80;;;10.40;99.90;;;;;;5069509;28;20281;-68
2021/05/12 04:30:23;;;;;;;5.95;4.60;;;10.40;99.90;;;;;;5070191;28;20628;-69
2021/05/12 04:32:50;;;;;;;6.38;3.95;;;10.40;99.90;;;;;;5070214;28;20207;-68
2021/05/12 04:35:19;;;;;;;5.32;4.10;;;10.40;99.90;;;;;;5069933;28;20205;-69
2021/05/12 04:37:46;;;;;;;5.80;4.78;;;10.40;99.90;;;;;;5069660;28;20220;-67
2021/05/12 04:40:13;;;;;;;7.68;4.57;;;10.50;99.90;;;;;;5069983;28;20205;-68
2021/05/12 04:42:39;;;;;;;5.30;4.53;;;10.50;99.90;;;;;;5070073;28;20698;-69
2021/05/12 04:45:09;;;;;;;5.63;5.05;;;10.50;99.90;;;;;;5067416;28;20728;-68
2021/05/12 04:47:36;;;;;;;6.32;5.22;;;10.50;99.90;;;;;;5064701;28;20209;-67
2021/05/12 04:50:04;;;;;;;5.55;5.03;;;10.50;99.90;;;;;;5056597;28;20204;-68
2021/05/12 04:52:30;;;;;;;6.88;5.50;;;10.50;99.90;;;;;;5055830;28;20208;-69
2021/05/12 04:54:56;;;;;;;5.03;4.50;;;10.50;99.90;;;;;;5058680;28;20205;-68
2021/05/12 04:57:23;;;;;;;6.70;4.97;;;10.50;99.90;;;;;;5062029;28;20707;-69
2021/05/12 04:59:49;;;;;;;6.70;5.30;;;10.50;99.90;;;;;;5070542;28;20235;-69
2021/05/12 05:02:15;;;;;;;6.50;4.10;;;10.50;99.90;;;;;;5071514;28;20212;-68
2021/05/12 05:04:43;;;;;;;5.50;5.00;;;10.60;99.90;;;;;;5072224;28;20257;-69
2021/05/12 05:07:09;;;;;;;5.82;4.25;;;10.60;99.90;;;;;;5071312;28;20192;-69
2021/05/12 05:09:36;;;;;;;5.80;4.35;;;10.60;99.90;;;;;;5071487;28;20240;-69
2021/05/12 05:12:03;;;;;;;5.95;5.07;;;10.60;99.90;;;;;;5070778;28;20670;-70
2021/05/12 05:14:29;;;;;;;5.90;4.68;;;10.60;99.90;;;;;;5070136;28;20200;-70
2021/05/12 05:16:55;;;;;;;5.75;5.15;;;10.50;99.90;;;;;;5071361;28;20224;-69
2021/05/12 05:19:22;;;;;;;6.65;4.47;;;10.60;99.90;;;;;;5091447;22;20527;-71
2021/05/12 05:21:49;;;;;;;9.20;5.30;;;10.60;99.90;;;;;;5070762;28;20283;-70
2021/05/12 05:24:15;;;;;;;5.43;4.38;;;10.50;99.90;;;;;;5070466;28;20286;-71
2021/05/12 05:26:42;;;;;;;5.55;4.13;;;10.50;99.90;;;;;;5071691;28;20200;-70
2021/05/12 05:29:08;;;;;;;4.50;4.10;;;10.50;99.90;;;;;;5070704;28;20204;-70
2021/05/12 05:31:34;;;;;;;7.68;4.55;;;10.50;99.90;;;;;;5070841;28;20212;-70
2021/05/12 05:34:00;;;;;;;5.13;4.65;;;10.50;99.90;;;;;;5071257;28;20212;-70
2021/05/12 05:36:27;;;;;;;4.88;3.92;;;10.50;99.90;;;;;;5070459;28;20200;-69
2021/05/12 05:38:54;;;;;;;4.53;4.13;;;10.50;99.90;;;;;;5070914;28;20686;-69
2021/05/12 05:41:20;;;;;;;4.82;4.20;;;10.50;99.90;;;;;;5070673;28;20220;-70
2021/05/12 05:43:46;;;;;;;4.63;4.05;;;10.50;99.90;;;;;;5070867;28;20208;-70
2021/05/12 05:46:13;;;;;;;9.95;4.32;;;10.60;99.90;;;;;;5070459;28;20230;-70
2021/05/12 05:48:40;;;;;;;5.20;3.70;;;10.60;99.90;;;;;;5070478;28;20207;-68
2021/05/12 05:51:06;;;;;;;4.57;3.80;;;10.60;99.90;;;;;;5070887;28;20724;-70
2021/05/12 05:53:32;;;;;;;4.85;3.80;;;10.60;99.90;;;;;;5070503;28;21149;-69
2021/05/12 05:55:59;;;;;;;5.00;3.35;;;10.60;99.90;;;;;;5070905;28;20235;-70
2021/05/12 05:58:25;;;;;;;5.18;4.07;;;10.60;99.90;;;;;;5070203;28;20286;-70
2021/05/12 06:00:52;;;;;;;3.85;3.38;;;10.50;99.90;;;;;;5070381;28;20227;-71
2021/05/12 06:03:18;;;;;;;4.25;3.22;;;10.50;99.90;;;;;;5070463;28;20197;-70
2021/05/12 06:05:46;;;;;;;8.10;3.10;;;10.50;99.90;;;;;;5069187;28;20249;-70
2021/05/12 06:08:13;;;;;;;3.47;2.90;;;10.50;99.90;;;;;;5068608;28;20254;-70
2021/05/12 06:10:39;;;;;;;4.07;3.30;;;10.50;99.90;;;;;;5070262;28;20243;-69
2021/05/12 06:13:06;;;;;;;5.55;2.97;;;10.50;99.90;;;;;;5070381;28;20200;-70
2021/05/12 06:15:32;;;;;;;3.10;2.65;;;10.50;99.90;;;;;;5067147;28;20212;-71
2021/05/12 06:17:58;;;;;;;3.03;2.83;;;10.50;99.90;;;;;;5069631;28;20244;-70
2021/05/12 06:20:25;;;;;;;3.67;2.92;;;10.50;99.90;;;;;;5070190;28;20236;-70
2021/05/12 06:22:59;;;;;;;5.80;3.40;;;10.50;99.90;;;;;;5069935;28;20200;-70
2021/05/12 06:25:25;;;;;;;3.58;2.53;;;10.60;99.90;;;;;;5069818;28;20199;-70
2021/05/12 06:27:51;;;;;;;3.75;3.17;;;10.60;99.90;;;;;;5069751;28;20600;-70
2021/05/12 06:30:19;;;;;;;4.10;3.10;;;10.60;99.90;;;;;;5069636;28;20220;-69
2021/05/12 06:32:46;;;;;;;4.53;3.20;;;10.70;99.90;;;;;;5070162;28;20204;-69
2021/05/12 06:35:13;;;;;;;3.33;2.97;;;10.70;99.90;;;;;;5069804;28;20208;-70
2021/05/12 06:37:39;;;;;;;3.90;3.45;;;10.70;99.90;;;;;;5069585;28;20220;-69
2021/05/12 06:40:07;;;;;;;3.72;3.10;;;10.70;99.90;;;;;;5069564;28;20227;-69
2021/05/12 06:42:33;;;;;;;3.92;3.53;;;10.70;99.90;;;;;;5070087;28;20204;-70
2021/05/12 06:44:59;;;;;;;4.75;3.22;;;10.70;99.90;;;;;;5070234;28;20578;-70
2021/05/12 06:47:26;;;;;;;5.40;3.20;;;10.80;99.90;;;;;;5069694;28;20196;-69
2021/05/12 06:49:52;;;;;;;5.10;3.00;;;10.80;99.90;;;;;;5069319;28;20236;-70
2021/05/12 06:52:19;;;;;;;3.75;3.03;;;10.80;99.90;;;;;;5069629;28;20230;-69
2021/05/12 06:54:45;;;;;;;4.15;3.10;;;10.80;99.90;;;;;;5069595;28;20596;-70
2021/05/12 06:57:11;;;;;;;5.43;2.95;;;10.80;99.90;;;;;;5069725;28;20227;-69
2021/05/12 06:59:37;;;;;;;5.63;3.45;;;10.80;99.90;;;;;;5069248;28;20699;-69
2021/05/12 07:02:03;;;;;;;3.50;3.20;;;10.80;99.90;;;;;;5069480;28;20211;-69
2021/05/12 07:04:30;;;;;;;3.03;2.70;;;10.80;99.90;;;;;;5069248;28;20204;-70
2021/05/12 07:06:56;;;;;;;3.88;2.85;;;10.80;99.90;;;;;;5069150;28;20200;-69
2021/05/12 07:09:23;;;;;;;3.75;2.85;;;10.70;99.90;;;;;;5069317;28;20237;-69
2021/05/12 07:11:49;;;;;;;3.85;3.38;;;10.80;99.90;;;;;;5069473;28;20618;-71
2021/05/12 07:14:16;;;;;;;4.55;3.20;;;10.80;99.90;;;;;;5069396;28;20204;-71
2021/05/12 07:16:42;;;;;;;3.08;2.78;;;10.70;99.90;;;;;;5068645;28;20261;-69
2021/05/12 07:19:08;;;;;;;5.32;3.30;;;10.70;99.90;;;;;;5068473;28;20698;-72
2021/05/12 07:21:35;;;;;;;4.78;2.97;;;10.70;99.90;;;;;;5069336;28;20201;-71
2021/05/12 07:24:01;;;;;;;4.85;2.72;;;10.70;99.90;;;;;;5069160;28;20203;-71
2021/05/12 07:26:28;;;;;;;4.53;3.40;;;10.60;99.90;;;;;;5069340;28;20211;-70
2021/05/12 07:28:54;;;;;;;5.28;3.55;;;10.60;99.90;;;;;;5068988;28;20196;-70
2021/05/12 07:31:20;;;;;;;4.30;3.75;;;10.60;99.90;;;;;;5069096;28;20220;-70
2021/05/12 07:33:47;;;;;;;3.20;2.80;;;10.60;99.90;;;;;;5069616;28;20566;-71
2021/05/12 07:36:14;;;;;;;3.45;2.92;;;10.60;99.90;;;;;;5069864;28;20326;-71
2021/05/12 07:38:41;;;;;;;6.07;3.30;;;10.50;99.90;;;;;;5070317;28;20220;-69
2021/05/12 07:41:07;;;;;;;4.43;3.60;;;10.50;99.90;;;;;;5070574;28;20658;-70
2021/05/12 07:43:33;;;;;;;3.47;3.03;;;10.50;99.90;;;;;;5070719;28;20261;-71
2021/05/12 07:46:00;;;;;;;5.43;3.10;;;10.50;99.90;;;;;;5070677;28;20239;-70
2021/05/12 07:48:27;;;;;;;3.58;3.25;;;10.50;99.90;;;;;;5070434;28;20570;-70
2021/05/12 07:50:53;;;;;;;3.95;3.42;;;10.50;99.90;;;;;;5070378;28;20221;-71
2021/05/12 07:53:19;;;;;;;5.78;3.30;;;10.50;99.90;;;;;;5070467;28;20204;-72
2021/05/12 07:55:47;;;;;;;7.13;3.50;;;10.40;99.90;;;;;;5070572;28;20200;-71
2021/05/12 07:58:13;;;;;;;3.00;2.58;;;10.50;99.90;;;;;;5070278;28;20221;-71
2021/05/12 08:00:41;;;;;;;4.00;3.20;;;10.50;99.90;;;;;;5070540;28;20220;-71
2021/05/12 08:03:08;;;;;;;3.97;3.60;;;10.50;99.90;;;;;;5070449;28;20291;-70
2021/05/12 08:05:34;;;;;;;3.55;2.85;;;10.50;99.90;;;;;;5070572;28;20257;-71
2021/05/12 08:08:00;;;;;;;3.67;3.38;;;10.50;99.90;;;;;;5070069;28;20197;-70
2021/05/12 08:10:26;;;;;;;4.45;3.25;;;10.50;99.90;;;;;;5070251;28;20235;-70
2021/05/12 08:12:54;;;;;;;6.45;3.90;;;10.50;99.90;;;;;;5070159;28;20626;-71
2021/05/12 08:15:20;;;;;;;3.15;2.88;;;10.50;99.90;;;;;;5070772;28;20265;-71
2021/05/12 08:17:47;;;;;;;4.10;3.70;;;10.60;99.90;;;;;;5070048;28;20307;-73
2021/05/12 08:20:13;;;;;;;3.35;2.80;;;10.70;99.90;;;;;;5070078;28;20239;-70
2021/05/12 08:22:39;;;;;;;4.32;3.20;;;10.70;99.90;;;;;;5070278;28;20695;-71
2021/05/12 08:25:07;;;;;;;4.93;3.28;;;10.70;99.90;;;;;;5070158;28;20204;-71
2021/05/12 08:27:33;;;;;;;4.53;2.88;;;10.70;99.90;;;;;;5071262;28;20196;-69
2021/05/12 08:30:02;;;;;;;3.85;3.30;;;10.80;99.90;;;;;;5073813;28;20228;-71
2021/05/12 08:32:28;;;;;;;6.75;3.15;;;10.90;99.90;;;;;;5074181;28;20207;-71
2021/05/12 08:34:57;;;;;;;3.80;2.88;;;10.90;99.90;;;;;;5073868;28;20208;-72
2021/05/12 08:37:23;;;;;;;3.67;2.67;;;10.90;99.90;;;;;;5073923;28;20224;-71
2021/05/12 08:39:49;;;;;;;5.60;2.92;;;10.90;99.90;;;;;;5073504;28;20630;-71
2021/05/12 08:42:16;;;;;;;4.50;3.20;;;10.90;99.90;;;;;;5073911;28;20207;-70
2021/05/12 08:44:43;;;;;;;3.03;2.70;;;10.90;99.90;;;;;;5073817;28;20721;-71
2021/05/12 08:47:15;;;;;;;4.30;2.45;;;10.90;99.90;;;;;;5073789;28;20247;-72
2021/05/12 08:49:42;;;;;;;3.47;2.80;;;10.90;99.90;;;;;;5073434;28;20295;-70
2021/05/12 08:52:08;;;;;;;3.00;2.70;;;10.90;99.90;;;;;;5073738;28;20204;-71
2021/05/12 08:54:35;;;;;;;3.40;2.70;;;10.90;99.90;;;;;;5073570;28;20205;-71
2021/05/12 08:57:02;;;;;;;3.83;2.63;;;10.90;99.90;;;;;;5073347;28;20257;-71
2021/05/12 08:59:28;;;;;;;3.25;2.95;;;10.90;99.90;;;;;;5073160;28;20228;-70
2021/05/12 09:01:54;;;;;;;4.70;3.08;;;10.90;99.90;;;;;;5073309;28;20209;-70
2021/05/12 09:04:21;;;;;;;4.38;2.60;;;10.90;99.90;;;;;;5073403;28;20212;-71
2021/05/12 09:06:49;;;;;;;2.75;2.47;;;10.90;99.90;;;;;;5073406;28;20572;-71
2021/05/12 09:09:16;;;;;;;5.20;2.70;;;11.00;99.90;;;;;;5072911;28;20196;-72
2021/05/12 09:11:42;;;;;;;3.45;2.60;;;11.00;99.90;;;;;;5073342;28;20200;-71
2021/05/12 09:14:27;;;;;;;3.78;2.85;;;11.00;99.90;;;;;;5073164;28;20200;-70
2021/05/12 09:16:53;;;;;;;3.47;2.40;;;11.00;99.90;;;;;;5073132;28;20208;-71
2021/05/12 09:19:24;;;;;;;4.40;2.70;;;11.00;99.90;;;;;;5072605;28;20711;-70
2021/05/12 09:21:51;;;;;;;4.43;2.88;;;11.00;99.90;;;;;;5072985;28;20226;-71
2021/05/12 09:24:28;;;;;;;3.33;2.28;;;11.00;99.90;;;;;;5073231;28;20211;-70
2021/05/12 09:26:56;;;;;;;3.20;2.90;;;11.00;99.90;;;;;;5074326;28;20196;-72
2021/05/12 09:29:24;;;;;;;4.53;2.72;;;10.90;99.90;;;;;;5075131;28;20243;-70
2021/05/12 09:31:50;;;;;;;6.85;2.50;;;10.90;99.90;;;;;;5072770;28;20204;-70
2021/05/12 09:34:17;;;;;;;5.00;3.28;;;11.00;99.90;;;;;;5072842;28;20702;-70
2021/05/12 09:36:44;;;;;;;5.60;3.13;;;10.90;99.90;;;;;;5072826;28;20208;-70
2021/05/12 09:39:11;;;;;;;4.95;2.97;;;11.00;99.90;;;;;;5071700;28;20224;-71
2021/05/12 09:41:37;;;;;;;4.53;2.78;;;10.90;99.90;;;;;;5072595;28;20204;-70
2021/05/12 09:44:06;;;;;;;3.00;2.30;;;11.00;99.90;;;;;;5072576;28;20208;-71
2021/05/12 09:46:33;;;;;;;3.28;2.90;;;11.00;99.90;;;;;;5072881;28;20204;-71
2021/05/12 09:49:21;;;;;;;4.32;2.65;;;11.00;99.90;;;;;;5072172;28;20717;-70
2021/05/12 09:51:50;;;;;;;5.47;2.90;;;11.10;99.90;;;;;;5067468;28;20196;-70
2021/05/12 09:54:18;;;;;;;3.60;2.80;;;11.10;99.90;;;;;;5072382;28;20300;-70
2021/05/12 09:56:48;;;;;;;4.18;3.08;;;11.10;99.90;;;;;;5072384;28;20589;-72
2021/05/12 09:59:18;;;;;;;3.80;2.90;;;11.20;99.90;;;;;;5071991;28;20243;-72
2021/05/12 10:01:49;;;;;;;4.15;2.63;;;11.20;99.90;;;;;;5072459;28;20207;-70
2021/05/12 10:04:34;;;;;;;4.55;2.53;;;11.30;99.90;;;;;;5072411;28;20200;-71
2021/05/12 10:07:11;;;;;;;3.00;2.80;;;11.30;99.90;;;;;;5072290;28;20230;-70
2021/05/12 10:09:38;;;;;;;5.38;3.20;;;11.40;99.90;;;;;;5071810;28;20258;-71
2021/05/12 10:12:06;;;;;;;3.13;2.80;;;11.40;99.90;;;;;;5072241;28;20204;-71
2021/05/12 10:14:34;;;;;;;3.63;2.83;;;11.50;99.90;;;;;;5072182;28;20231;-71
2021/05/12 10:17:01;;;;;;;4.63;3.17;;;11.40;99.90;;;;;;5071957;28;20203;-71
2021/05/12 10:19:27;;;;;;;3.45;2.50;;;11.50;99.90;;;;;;5071734;28;20247;-70
2021/05/12 10:21:54;;;;;;;3.97;3.00;;;11.50;99.90;;;;;;5071793;28;20556;-71
2021/05/12 10:24:21;;;;;;;3.88;2.42;;;11.60;99.90;;;;;;5071971;28;20207;-71
2021/05/12 10:26:48;;;;;;;3.10;2.75;;;11.60;99.90;;;;;;5071605;28;20204;-71
2021/05/12 10:29:18;;;;;;;4.10;2.80;;;11.70;99.90;;;;;;5071727;28;20207;-70
2021/05/12 10:31:45;;;;;;;3.05;2.60;;;11.80;99.90;;;;;;5071780;28;20217;-71
2021/05/12 10:34:17;;;;;;;4.38;2.97;;;11.90;99.90;;;;;;5071755;28;20625;-70
2021/05/12 10:36:44;;;;;;;6.03;2.80;;;11.90;99.90;;;;;;5071920;28;20204;-72
2021/05/12 10:39:10;;;;;;;3.75;3.28;;;11.90;99.90;;;;;;5071691;28;20232;-71
2021/05/12 10:41:43;;;;;;;3.10;2.80;;;11.80;99.90;;;;;;5072329;28;20218;-72
2021/05/12 10:44:16;;;;;;;4.22;2.72;;;11.80;99.90;;;;;;5072092;28;20200;-71
2021/05/12 10:46:48;;;;;;;4.07;2.83;;;11.70;99.90;;;;;;5071702;28;20211;-71
2021/05/12 10:49:22;;;;;;;3.65;2.70;;;11.70;99.90;;;;;;5071225;28;20619;-72
2021/05/12 10:51:49;;;;;;;4.22;2.60;;;11.70;99.90;;;;;;5070335;28;20691;-71
2021/05/12 10:54:39;;;;;;;5.75;3.28;;;11.70;99.90;;;;;;5071354;28;20274;-71
2021/05/12 10:57:07;;;;;;;3.95;2.13;;;11.70;99.90;;;;;;5071252;28;20212;-71
2021/05/12 10:59:34;;;;;;;3.13;2.55;;;11.70;99.90;;;;;;5070826;28;20228;-71
2021/05/12 11:02:00;;;;;;;3.40;2.45;;;11.80;99.90;;;;;;5071136;28;20208;-70
2021/05/12 11:04:26;;;;;;;6.22;2.65;;;11.70;99.90;;;;;;5071051;28;20205;-70
2021/05/12 11:07:11;;;;;;;6.40;3.58;;;11.80;99.90;;;;;;5070835;28;20208;-70
2021/05/12 11:09:47;;;;;;;3.67;2.60;;;11.90;99.90;;;;;;5070329;28;20417;-70
2021/05/12 11:12:31;;;;;;;2.60;2.40;;;11.90;99.90;;;;;;5070996;28;20212;-70
2021/05/12 11:15:00;;;;;;;6.20;2.70;;;12.00;99.90;;;;;;5070629;28;20659;-70
2021/05/12 11:17:50;;;;;;;5.35;2.60;;;12.00;99.90;;;;;;5070975;28;20226;-70
2021/05/12 11:20:22;;;;;;;4.95;2.85;;;12.10;99.90;;;;;;5092153;22;20537;-70
2021/05/12 11:22:50;;;;;;;5.22;2.63;;;12.20;99.90;;;;;;5062393;28;20197;-70
2021/05/12 11:25:21;;;;;;;2.97;2.22;;;12.20;99.90;;;;;;5070866;28;20564;-71
2021/05/12 11:28:34;;;;;;;3.85;2.42;;;12.30;99.90;;;;;;5070210;28;20455;-70
2021/05/12 11:33:45;;;;;;;2.78;1.85;;;12.30;99.90;;;;;;5057364;28;20192;-70
2021/05/12 11:36:14;;;;;;;8.85;2.95;;;12.30;99.90;;;;;;5070764;28;20204;-71
2021/05/12 11:38:41;;;;;;;5.32;2.50;;;12.30;99.90;;;;;;5069995;28;20657;-70
2021/05/12 11:41:09;;;;;;;2.30;2.10;;;12.40;99.90;;;;;;5070637;28;20220;-71
2021/05/12 11:43:37;;;;;;;4.05;2.38;;;12.50;99.90;;;;;;5070310;28;20464;-70
2021/05/12 11:46:12;;;;;;;3.00;2.10;;;12.60;99.90;;;;;;5070750;28;20239;-70
2021/05/12 11:48:40;;;;;;;2.88;2.20;;;12.60;99.90;;;;;;5069985;28;20257;-69
2021/05/12 11:51:06;;;;;;;4.60;2.70;;;12.70;99.90;;;;;;5070511;28;20604;-71
2021/05/12 11:53:36;;;;;;;3.60;2.27;;;12.70;99.90;;;;;;5070217;28;20249;-70
2021/05/12 11:56:03;;;;;;;4.47;2.50;;;12.70;99.90;;;;;;5070231;28;20465;-70
2021/05/12 11:58:29;;;;;;;5.03;2.33;;;12.70;99.90;;;;;;5070022;28;20231;-70
2021/05/12 12:01:04;;;;;;;2.55;2.30;;;12.80;99.90;;;;;;5070196;28;20738;-70
2021/05/12 12:03:31;;;;;;;2.75;1.90;;;12.80;99.90;;;;;;5073027;28;20200;-70
2021/05/12 12:06:03;;;;;;;6.32;2.20;;;12.70;99.90;;;;;;5074432;28;20290;-70
2021/05/12 12:08:30;;;;;;;3.37;2.10;;;12.70;99.90;;;;;;5073978;28;20713;-70
2021/05/12 12:11:08;;;;;;;14.13;2.40;;;12.70;99.90;;;;;;5074103;28;20482;-71
2021/05/12 12:13:34;;;;;;;3.10;2.10;;;12.80;99.90;;;;;;5074236;28;20200;-70
2021/05/12 12:16:02;;;;;;;4.10;2.20;;;12.90;99.90;;;;;;5074524;28;20970;-71
2021/05/12 12:18:29;;;;;;;6.17;2.77;;;12.90;99.90;;;;;;5073808;28;20486;-70
2021/05/12 12:20:55;;;;;;;3.43;2.50;;;13.10;99.90;;;;;;5074003;28;20543;-70
2021/05/12 12:23:30;;;;;;;2.70;2.33;;;13.20;99.90;;;;;;5074244;28;20455;-70
2021/05/12 12:26:08;;;;;;;3.10;2.57;;;13.20;99.90;;;;;;5074041;28;20507;-70
2021/05/12 12:28:35;;;;;;;4.17;2.60;;;13.20;99.90;;;;;;5073790;28;20827;-70
2021/05/12 12:31:02;;;;;;;2.43;2.23;;;13.20;99.90;;;;;;5074009;28;20993;-71
2021/05/12 12:33:28;;;;;;;3.83;2.60;;;13.30;99.90;;;;;;5073960;28;21062;-70
2021/05/12 12:36:06;;;;;;;2.33;2.00;;;13.40;99.90;;;;;;5073758;28;20461;-70
2021/05/12 12:38:33;;;;;;;3.63;1.90;;;13.50;99.90;;;;;;5073339;28;20482;-71
2021/05/12 12:41:00;;;;;;;3.93;2.20;;;13.50;99.90;;;;;;5073903;28;20484;-70
2021/05/12 12:43:39;;;;;;;4.37;2.53;;;13.60;99.90;;;;;;5073766;28;20458;-70
2021/05/12 12:46:07;;;;;;;3.47;2.27;;;13.60;99.90;;;;;;5073917;28;20611;-70
2021/05/12 12:48:33;;;;;;;3.97;2.13;;;13.70;99.90;;;;;;5073346;28;20519;-70
2021/05/12 12:51:00;;;;;;;2.90;1.83;;;13.80;99.90;;;;;;5073789;28;20482;-70
2021/05/12 12:53:29;;;;;;;5.37;2.47;;;13.90;99.90;;;;;;5073596;28;20466;-70